createdAt,value
2018-07-24T00:02:00.297Z,81.10
2018-07-24T00:04:28.875Z,81.70
2018-07-24T00:06:57.504Z,82.00
2018-07-24T00:09:26.800Z,82.20
2018-07-24T00:11:55.360Z,82.50
2018-07-24T00:14:23.952Z,83.10
2018-07-24T00:16:52.532Z,83.60
2018-07-24T00:19:21.088Z,84.20
2018-07-24T00:21:49.740Z,84.50
2018-07-24T00:24:18.701Z,84.60
2018-07-24T00:26:47.291Z,85.60
2018-07-24T00:29:16.036Z,85.00
2018-07-24T00:31:44.605Z,85.30
2018-07-24T00:34:13.218Z,85.80
2018-07-24T00:36:41.762Z,85.40
2018-07-24T00:39:10.355Z,85.90
2018-07-24T00:41:39.004Z,86.00
2018-07-24T00:44:07.655Z,85.30
2018-07-24T00:46:36.259Z,85.80
2018-07-24T00:49:04.859Z,86.60
2018-07-24T00:51:33.461Z,86.40
2018-07-24T00:54:02.125Z,86.90
2018-07-24T00:56:30.692Z,87.60
2018-07-24T00:58:59.266Z,88.10
2018-07-24T01:01:27.800Z,88.40
2018-07-24T01:03:56.407Z,88.90
2018-07-24T01:06:24.973Z,88.90
2018-07-24T01:08:53.616Z,88.50
2018-07-24T01:11:22.257Z,88.30
2018-07-24T01:13:50.844Z,88.10
2018-07-24T01:16:19.416Z,88.00
2018-07-24T01:18:47.967Z,88.20
2018-07-24T01:21:16.836Z,88.30
2018-07-24T01:23:45.459Z,88.00
2018-07-24T01:26:14.261Z,87.80
2018-07-24T01:28:42.793Z,88.20
2018-07-24T01:31:11.296Z,88.10
2018-07-24T01:33:39.875Z,88.20
2018-07-24T01:36:08.433Z,87.50
2018-07-24T01:38:37.008Z,87.40
2018-07-24T01:41:05.550Z,87.40
2018-07-24T01:43:34.130Z,87.60
2018-07-24T01:46:02.664Z,87.40
2018-07-24T01:50:59.412Z,87.30
2018-07-24T01:53:27.975Z,88.60
2018-07-24T01:55:56.532Z,88.70
2018-07-24T01:58:25.083Z,88.50
2018-07-24T02:00:53.585Z,88.80
2018-07-24T02:03:22.129Z,89.00
2018-07-24T02:05:50.679Z,89.00
2018-07-24T02:08:19.201Z,90.00
2018-07-24T02:10:47.705Z,90.20
2018-07-24T02:13:16.258Z,89.70
2018-07-24T02:15:44.748Z,90.20
2018-07-24T02:18:13.270Z,90.80
2018-07-24T02:20:41.825Z,90.80
2018-07-24T02:23:10.527Z,90.40
2018-07-24T02:25:39.179Z,90.60
2018-07-24T02:28:08.257Z,90.50
2018-07-24T02:30:36.826Z,90.20
2018-07-24T02:33:05.537Z,90.00
2018-07-24T02:35:34.061Z,90.10
2018-07-24T02:38:02.677Z,90.00
2018-07-24T02:40:32.422Z,90.50
2018-07-24T02:43:01.042Z,90.30
2018-07-24T02:45:29.576Z,90.10
2018-07-24T02:47:58.153Z,90.30
2018-07-24T02:50:26.667Z,90.40
2018-07-24T02:52:55.192Z,90.60
2018-07-24T02:55:24.296Z,91.00
2018-07-24T02:57:52.909Z,90.90
2018-07-24T03:00:21.718Z,90.60
2018-07-24T03:02:50.423Z,90.30
2018-07-24T03:05:18.963Z,90.00
2018-07-24T03:07:47.476Z,90.60
2018-07-24T03:10:16.140Z,90.60
2018-07-24T03:12:44.699Z,90.50
2018-07-24T03:15:13.234Z,90.70
2018-07-24T03:17:41.775Z,90.20
2018-07-24T03:20:10.274Z,90.00
2018-07-24T03:22:38.873Z,90.10
2018-07-24T03:25:07.893Z,90.00
2018-07-24T03:27:36.637Z,89.70
2018-07-24T03:30:05.641Z,90.20
2018-07-24T03:32:34.296Z,89.90
2018-07-24T03:35:02.873Z,89.70
2018-07-24T03:37:31.377Z,88.70
2018-07-24T03:39:59.981Z,88.40
2018-07-24T03:42:28.480Z,88.80
2018-07-24T03:44:57.117Z,88.80
2018-07-24T03:47:25.687Z,88.90
2018-07-24T03:49:54.268Z,89.00
2018-07-24T03:52:22.810Z,88.70
2018-07-24T03:54:51.385Z,88.70
2018-07-24T03:57:19.916Z,88.90
2018-07-24T03:59:48.464Z,88.90
2018-07-24T04:02:17.026Z,88.70
2018-07-24T04:04:45.616Z,88.40
2018-07-24T04:07:14.172Z,88.90
2018-07-24T04:09:42.758Z,89.80
2018-07-24T04:12:11.284Z,89.00
2018-07-24T04:14:39.829Z,88.90
2018-07-24T04:17:08.349Z,88.70
2018-07-24T04:19:36.923Z,88.30
2018-07-24T04:22:06.302Z,89.00
2018-07-24T04:24:34.890Z,88.60
2018-07-24T04:27:03.437Z,88.40
2018-07-24T04:32:00.227Z,87.20
2018-07-24T04:34:28.827Z,86.40
2018-07-24T04:36:58.078Z,86.30
2018-07-24T04:39:26.654Z,86.70
2018-07-24T04:41:55.145Z,86.30
2018-07-24T04:44:23.677Z,86.50
2018-07-24T04:46:52.236Z,86.20
2018-07-24T04:49:20.803Z,85.20
2018-07-24T04:51:49.415Z,84.60
2018-07-24T04:54:17.996Z,84.80
2018-07-24T04:56:46.524Z,83.90
2018-07-24T04:59:15.060Z,82.70
2018-07-24T05:01:43.577Z,82.30
2018-07-24T05:04:12.156Z,81.10
2018-07-24T05:06:40.690Z,80.00
2018-07-24T05:09:12.036Z,79.70
2018-07-24T05:11:40.580Z,78.80
2018-07-24T05:14:10.685Z,75.00
2018-07-24T05:16:39.684Z,71.60
2018-07-24T05:19:08.739Z,68.30
2018-07-24T05:21:37.725Z,65.00
2018-07-24T05:24:06.701Z,63.30
2018-07-24T05:26:35.312Z,59.80
2018-07-24T05:29:03.935Z,57.30
2018-07-24T05:31:32.531Z,54.50
2018-07-24T05:34:01.118Z,52.60
2018-07-24T05:36:29.680Z,49.10
2018-07-24T05:38:58.292Z,45.90
2018-07-24T05:41:26.860Z,43.30
2018-07-24T05:43:55.433Z,40.80
2018-07-24T05:46:24.055Z,39.90
2018-07-24T05:48:52.590Z,39.60
2018-07-24T05:51:21.174Z,39.60
2018-07-24T05:53:49.740Z,41.30
2018-07-24T05:56:18.284Z,42.90
2018-07-24T05:58:46.802Z,42.70
2018-07-24T06:01:15.403Z,41.30
2018-07-24T06:03:43.956Z,39.80
2018-07-24T06:06:12.543Z,37.60
2018-07-24T06:08:41.143Z,37.80
2018-07-24T06:11:10.115Z,36.30
2018-07-24T06:13:38.642Z,37.30
2018-07-24T06:16:07.146Z,36.50
2018-07-24T06:18:35.686Z,35.50
2018-07-24T06:21:04.245Z,36.80
2018-07-24T06:23:32.914Z,35.70
2018-07-24T06:26:01.496Z,36.80
2018-07-24T06:28:30.028Z,36.00
2018-07-24T06:30:58.549Z,35.40
2018-07-24T06:33:27.070Z,35.50
2018-07-24T06:35:55.674Z,36.40
2018-07-24T06:38:24.284Z,34.60
2018-07-24T06:40:52.872Z,34.20
2018-07-24T06:43:21.404Z,32.80
2018-07-24T06:45:49.953Z,33.70
2018-07-24T06:48:18.504Z,33.60
2018-07-24T06:50:47.104Z,33.70
2018-07-24T06:53:15.656Z,32.60
2018-07-24T06:55:44.272Z,33.70
2018-07-24T06:58:12.793Z,32.20
2018-07-24T07:00:41.431Z,31.00
2018-07-24T07:03:09.956Z,31.00
2018-07-24T07:05:38.547Z,30.80
2018-07-24T07:08:07.100Z,30.20
2018-07-24T07:10:35.690Z,29.40
2018-07-24T07:13:04.328Z,28.60
2018-07-24T07:15:32.855Z,28.60
2018-07-24T07:18:01.456Z,28.50
2018-07-24T07:20:30.007Z,27.00
2018-07-24T07:22:58.677Z,28.60
2018-07-24T07:25:27.296Z,27.70
2018-07-24T07:27:55.901Z,27.10
2018-07-24T07:30:24.622Z,26.90
2018-07-24T07:32:53.192Z,27.90
2018-07-24T07:35:21.885Z,28.00
2018-07-24T07:37:50.449Z,28.10
2018-07-24T07:40:19.038Z,26.60
2018-07-24T07:42:47.600Z,27.10
2018-07-24T07:45:16.129Z,26.10
2018-07-24T07:47:44.697Z,24.80
2018-07-24T07:50:13.228Z,26.10
2018-07-24T07:52:41.833Z,24.10
2018-07-24T07:55:10.348Z,26.20
2018-07-24T07:57:38.974Z,27.50
2018-07-24T08:00:07.753Z,27.40
2018-07-24T08:02:36.397Z,28.00
2018-07-24T08:05:04.956Z,26.40
2018-07-24T08:07:33.500Z,27.30
2018-07-24T08:10:02.051Z,26.00
2018-07-24T08:12:30.588Z,24.50
2018-07-24T08:14:59.156Z,24.70
2018-07-24T08:17:27.717Z,25.30
2018-07-24T08:19:56.363Z,25.20
2018-07-24T08:22:24.962Z,26.70
2018-07-24T08:24:53.470Z,29.10
2018-07-24T08:27:22.084Z,26.50
2018-07-24T08:29:50.632Z,24.50
2018-07-24T08:32:19.326Z,26.50
2018-07-24T08:34:47.829Z,22.90
2018-07-24T08:37:16.417Z,23.00
2018-07-24T08:39:44.993Z,21.00
2018-07-24T08:42:13.558Z,22.40
2018-07-24T08:44:42.056Z,22.60
2018-07-24T08:47:10.608Z,21.50
2018-07-24T08:49:39.112Z,21.40
2018-07-24T08:52:07.753Z,21.10
2018-07-24T08:54:36.569Z,21.30
2018-07-24T08:57:04.841Z,20.80
2018-07-24T08:59:33.344Z,22.10
2018-07-24T09:02:01.996Z,20.90
2018-07-24T09:04:30.512Z,19.00
2018-07-24T09:06:59.400Z,21.70
2018-07-24T09:09:27.935Z,20.80
2018-07-24T09:11:56.472Z,21.70
2018-07-24T09:14:24.975Z,21.30
2018-07-24T09:16:53.533Z,21.20
2018-07-24T09:19:22.084Z,22.70
2018-07-24T09:21:50.601Z,23.70
2018-07-24T09:24:19.172Z,24.50
2018-07-24T09:26:47.740Z,26.90
2018-07-24T09:29:16.304Z,24.80
2018-07-24T09:31:44.817Z,26.40
2018-07-24T09:34:13.388Z,25.40
2018-07-24T09:36:41.936Z,26.00
2018-07-24T09:39:11.355Z,28.00
2018-07-24T09:41:40.351Z,26.10
2018-07-24T09:44:08.908Z,26.40
2018-07-24T09:46:37.424Z,24.50
2018-07-24T09:49:06.144Z,25.90
2018-07-24T09:51:34.658Z,24.60
2018-07-24T09:54:03.270Z,26.20
2018-07-24T09:56:31.877Z,26.80
2018-07-24T09:59:00.348Z,25.70
2018-07-24T10:01:31.542Z,25.30
2018-07-24T10:04:00.403Z,23.20
2018-07-24T10:06:29.006Z,23.30
2018-07-24T10:08:57.591Z,23.50
2018-07-24T10:11:26.105Z,24.30
2018-07-24T10:13:54.724Z,23.20
2018-07-24T10:16:23.338Z,20.50
2018-07-24T10:18:51.946Z,20.00
2018-07-24T10:21:20.458Z,20.80
2018-07-24T10:23:49.000Z,19.20
2018-07-24T10:28:45.840Z,23.30
2018-07-24T10:31:14.360Z,24.40
2018-07-24T10:33:42.877Z,24.50
2018-07-24T10:36:11.490Z,23.70
2018-07-24T10:38:40.103Z,23.20
2018-07-24T10:41:08.680Z,25.30
2018-07-24T10:43:37.214Z,24.30
2018-07-24T10:46:05.936Z,24.00
2018-07-24T10:48:34.504Z,26.30
2018-07-24T10:51:02.997Z,24.90
2018-07-24T10:53:31.524Z,26.10
2018-07-24T10:56:00.022Z,25.40
2018-07-24T10:58:28.595Z,22.90
2018-07-24T11:00:57.115Z,24.00
2018-07-24T11:03:25.613Z,21.80
2018-07-24T11:05:54.163Z,21.60
2018-07-24T11:08:22.693Z,19.90
2018-07-24T11:10:51.212Z,19.00
2018-07-24T11:13:19.803Z,20.20
2018-07-24T11:15:48.292Z,20.80
2018-07-24T11:18:16.900Z,19.90
2018-07-24T11:20:45.421Z,20.50
2018-07-24T11:23:14.114Z,22.90
2018-07-24T11:25:42.554Z,22.00
2018-07-24T11:28:11.089Z,21.60
2018-07-24T11:30:39.624Z,21.40
2018-07-24T11:33:08.273Z,20.40
2018-07-24T11:35:36.780Z,19.90
2018-07-24T11:38:05.499Z,20.40
2018-07-24T11:40:34.067Z,20.70
2018-07-24T11:43:02.704Z,22.20
2018-07-24T11:45:31.260Z,21.50
2018-07-24T11:47:59.784Z,22.30
2018-07-24T11:50:28.317Z,21.30
2018-07-24T11:52:56.894Z,20.90
2018-07-24T11:55:25.448Z,22.10
2018-07-24T11:57:54.049Z,20.80
2018-07-24T12:00:22.653Z,20.20
2018-07-24T12:02:51.308Z,17.90
2018-07-24T12:05:20.312Z,18.90
2018-07-24T12:07:48.914Z,20.50
2018-07-24T12:10:17.441Z,20.00
2018-07-24T12:12:46.002Z,20.50
2018-07-24T12:15:14.637Z,19.70
2018-07-24T12:17:43.141Z,19.90
2018-07-24T12:20:11.786Z,20.70
2018-07-24T12:22:40.361Z,19.50
2018-07-24T12:25:09.037Z,19.20
2018-07-24T12:27:37.648Z,19.20
2018-07-24T12:30:07.062Z,18.40
2018-07-24T12:32:35.664Z,17.60
2018-07-24T12:35:04.355Z,15.70
2018-07-24T12:37:32.900Z,15.90
2018-07-24T12:40:01.460Z,16.30
2018-07-24T12:42:30.001Z,17.10
2018-07-24T12:44:58.656Z,17.60
2018-07-24T12:47:27.277Z,16.20
2018-07-24T12:49:55.813Z,17.30
2018-07-24T12:52:24.454Z,17.00
2018-07-24T12:54:53.030Z,18.10
2018-07-24T12:57:21.685Z,16.80
2018-07-24T12:59:50.291Z,17.10
2018-07-24T13:02:18.844Z,16.70
2018-07-24T13:04:47.387Z,15.70
2018-07-24T13:07:15.961Z,17.60
2018-07-24T13:09:44.561Z,16.90
2018-07-24T13:12:13.094Z,17.30
2018-07-24T13:14:41.665Z,17.70
2018-07-24T13:17:10.363Z,16.60
2018-07-24T13:19:39.062Z,18.60
2018-07-24T13:22:07.542Z,16.20
2018-07-24T13:24:36.124Z,15.50
2018-07-24T13:27:04.673Z,15.50
2018-07-24T13:29:33.207Z,14.70
2018-07-24T13:32:01.805Z,16.10
2018-07-24T13:34:30.327Z,14.70
2018-07-24T13:36:58.952Z,15.00
2018-07-24T13:39:27.474Z,15.40
2018-07-24T13:41:56.000Z,15.90
2018-07-24T13:44:24.560Z,15.30
2018-07-24T13:46:53.204Z,16.40
2018-07-24T13:49:21.782Z,17.00
2018-07-24T13:51:50.290Z,16.00
2018-07-24T13:54:18.877Z,17.90
2018-07-24T13:56:47.375Z,18.00
2018-07-24T13:59:15.941Z,18.30
2018-07-24T14:01:44.465Z,18.10
2018-07-24T14:04:13.047Z,18.70
2018-07-24T14:06:41.648Z,17.80
2018-07-24T14:09:11.593Z,17.00
2018-07-24T14:11:40.593Z,17.80
2018-07-24T14:14:09.433Z,17.60
2018-07-24T14:16:38.078Z,17.60
2018-07-24T14:19:06.888Z,17.80
2018-07-24T14:21:35.481Z,19.30
2018-07-24T14:24:04.125Z,21.40
2018-07-24T14:26:32.676Z,19.20
2018-07-24T14:29:01.196Z,17.20
2018-07-24T14:31:29.721Z,17.20
2018-07-24T14:33:58.245Z,17.40
2018-07-24T14:36:26.793Z,17.00
2018-07-24T14:38:55.332Z,15.70
2018-07-24T14:41:23.872Z,17.00
2018-07-24T14:43:52.433Z,17.00
2018-07-24T14:46:20.984Z,16.80
2018-07-24T14:48:49.463Z,15.10
2018-07-24T14:51:18.053Z,15.90
2018-07-24T14:53:46.623Z,17.10
2018-07-24T14:56:15.177Z,17.50
2018-07-24T14:58:43.696Z,16.40
2018-07-24T15:01:12.257Z,16.60
2018-07-24T15:03:40.817Z,16.60
2018-07-24T15:06:09.337Z,15.30
2018-07-24T15:08:37.808Z,16.00
2018-07-24T15:11:06.404Z,16.10
2018-07-24T15:13:34.936Z,16.00
2018-07-24T15:16:03.505Z,16.40
2018-07-24T15:18:32.118Z,15.90
2018-07-24T15:21:00.678Z,17.00
2018-07-24T15:23:29.199Z,17.20
2018-07-24T15:25:57.749Z,17.40
2018-07-24T15:28:26.285Z,15.20
2018-07-24T15:30:54.951Z,15.60
2018-07-24T15:33:23.476Z,15.00
2018-07-24T15:35:52.119Z,14.40
2018-07-24T15:38:20.685Z,14.10
2018-07-24T15:40:49.244Z,15.40
2018-07-24T15:43:17.774Z,15.60
2018-07-24T15:45:46.291Z,15.70
2018-07-24T15:48:14.831Z,15.80
2018-07-24T15:50:43.440Z,17.30
2018-07-24T15:53:12.016Z,18.20
2018-07-24T15:55:40.548Z,18.10
2018-07-24T15:58:09.114Z,17.50
2018-07-24T16:00:37.702Z,17.20
2018-07-24T16:03:06.308Z,17.10
2018-07-24T16:05:35.094Z,18.10
2018-07-24T16:08:03.682Z,19.20
2018-07-24T16:10:32.248Z,18.80
2018-07-24T16:13:00.804Z,17.60
2018-07-24T16:15:29.434Z,18.10
2018-07-24T16:17:57.935Z,18.10
2018-07-24T16:20:26.536Z,18.60
2018-07-24T16:22:55.170Z,18.90
2018-07-24T16:25:23.748Z,19.10
2018-07-24T16:27:52.292Z,18.10
2018-07-24T16:30:20.915Z,18.40
2018-07-24T16:32:49.474Z,18.50
2018-07-24T16:35:18.012Z,18.20
2018-07-24T16:37:46.561Z,18.60
2018-07-24T16:40:15.092Z,19.20
2018-07-24T16:42:43.608Z,20.00
2018-07-24T16:45:12.150Z,19.70
2018-07-24T16:47:40.652Z,19.60
2018-07-24T16:50:09.276Z,20.00
2018-07-24T16:52:37.832Z,18.40
2018-07-24T16:55:06.434Z,18.90
2018-07-24T16:57:34.993Z,19.70
2018-07-24T17:00:03.578Z,19.40
2018-07-24T17:02:32.873Z,20.00
2018-07-24T17:05:01.458Z,19.40
2018-07-24T17:07:30.048Z,20.10
2018-07-24T17:09:58.598Z,19.00
2018-07-24T17:12:27.139Z,19.80
2018-07-24T17:14:55.715Z,19.70
2018-07-24T17:17:24.860Z,20.40
2018-07-24T17:19:53.483Z,21.10
2018-07-24T17:22:21.990Z,20.40
2018-07-24T17:24:50.633Z,21.50
2018-07-24T17:27:19.224Z,22.00
2018-07-24T17:29:47.748Z,22.30
2018-07-24T17:32:16.376Z,22.80
2018-07-24T17:34:44.941Z,22.70
2018-07-24T17:37:13.568Z,23.20
2018-07-24T17:39:42.108Z,24.00
2018-07-24T17:42:10.745Z,24.10
2018-07-24T17:44:39.280Z,24.60
2018-07-24T17:47:07.828Z,24.80
2018-07-24T17:49:37.145Z,25.70
2018-07-24T17:52:05.952Z,25.90
2018-07-24T17:54:34.554Z,27.20
2018-07-24T17:59:31.421Z,27.00
2018-07-24T18:01:59.988Z,28.00
2018-07-24T18:04:28.568Z,28.50
2018-07-24T18:06:57.143Z,30.00
2018-07-24T18:09:26.632Z,30.40
2018-07-24T18:11:55.216Z,31.00
2018-07-24T18:14:23.776Z,31.80
2018-07-24T18:16:52.305Z,32.80
2018-07-24T18:19:20.879Z,32.50
2018-07-24T18:21:49.411Z,33.70
2018-07-24T18:24:17.905Z,34.60
2018-07-24T18:26:46.477Z,35.20
2018-07-24T18:29:15.027Z,35.00
2018-07-24T18:31:43.604Z,35.50
2018-07-24T18:34:12.110Z,36.50
2018-07-24T18:36:40.697Z,36.70
2018-07-24T18:39:09.866Z,36.70
2018-07-24T18:41:38.793Z,36.00
2018-07-24T18:44:07.332Z,36.20
2018-07-24T18:46:35.973Z,36.00
2018-07-24T18:49:04.581Z,35.70
2018-07-24T18:51:33.166Z,36.40
2018-07-24T18:54:01.688Z,36.20
2018-07-24T18:58:58.445Z,37.60
2018-07-24T19:01:27.013Z,37.60
2018-07-24T19:03:55.548Z,36.20
2018-07-24T19:06:24.092Z,36.80
2018-07-24T19:08:52.831Z,36.90
2018-07-24T19:11:21.409Z,37.20
2018-07-24T19:13:50.035Z,38.10
2018-07-24T19:16:18.632Z,38.20
2018-07-24T19:18:47.244Z,37.80
2018-07-24T19:21:15.836Z,39.40
2018-07-24T19:23:44.382Z,41.10
2018-07-24T19:26:12.916Z,40.80
2018-07-24T19:31:09.653Z,41.00
2018-07-24T19:33:38.175Z,39.70
2018-07-24T19:36:06.861Z,40.40
2018-07-24T19:38:35.396Z,40.20
2018-07-24T19:41:03.972Z,41.20
2018-07-24T19:43:32.522Z,43.40
2018-07-24T19:46:01.207Z,44.40
2018-07-24T19:48:29.788Z,45.20
2018-07-24T19:50:58.352Z,46.10
2018-07-24T19:53:26.912Z,46.10
2018-07-24T19:55:55.534Z,45.90
2018-07-24T19:58:24.140Z,45.60
2018-07-24T20:00:52.706Z,47.00
2018-07-24T20:03:21.257Z,48.90
2018-07-24T20:05:49.772Z,48.90
2018-07-24T20:08:18.394Z,50.00
2018-07-24T20:10:46.919Z,50.70
2018-07-24T20:13:15.540Z,49.80
2018-07-24T20:15:44.039Z,50.30
2018-07-24T20:18:12.674Z,50.50
2018-07-24T20:20:41.307Z,49.80
2018-07-24T20:23:09.923Z,52.70
2018-07-24T20:25:38.404Z,52.10
2018-07-24T20:28:07.027Z,52.20
2018-07-24T20:30:35.536Z,52.70
2018-07-24T20:33:04.039Z,52.90
2018-07-24T20:35:32.703Z,53.20
2018-07-24T20:38:01.161Z,54.10
2018-07-24T20:40:29.676Z,52.50
2018-07-24T20:42:58.235Z,52.40
2018-07-24T20:45:27.363Z,53.80
2018-07-24T20:47:55.960Z,53.40
2018-07-24T20:50:24.584Z,53.10
2018-07-24T20:52:53.197Z,54.10
2018-07-24T20:55:21.725Z,55.70
2018-07-24T20:57:50.284Z,56.30
2018-07-24T21:00:19.227Z,56.90
2018-07-24T21:02:47.760Z,56.30
2018-07-24T21:05:16.253Z,56.20
2018-07-24T21:07:44.822Z,57.20
2018-07-24T21:10:19.320Z,57.00
2018-07-24T21:12:49.163Z,56.60
2018-07-24T21:15:18.397Z,56.80
2018-07-24T21:17:47.148Z,58.00
2018-07-24T21:20:15.724Z,57.90
2018-07-24T21:22:44.282Z,58.60
2018-07-24T21:25:12.800Z,59.20
2018-07-24T21:27:41.410Z,58.90
2018-07-24T21:30:10.525Z,59.30
2018-07-24T21:32:39.085Z,59.30
2018-07-24T21:35:07.656Z,58.30
2018-07-24T21:37:36.238Z,58.40
2018-07-24T21:40:04.919Z,59.50
2018-07-24T21:42:33.508Z,58.10
2018-07-24T21:45:02.025Z,58.40
2018-07-24T21:47:30.549Z,59.90
2018-07-24T21:49:59.091Z,58.60
2018-07-24T21:52:27.619Z,59.60
2018-07-24T21:54:56.248Z,60.30
2018-07-24T21:57:24.785Z,60.40
2018-07-24T21:59:53.307Z,59.00
2018-07-24T22:02:21.832Z,59.00
2018-07-24T22:07:18.591Z,58.90
2018-07-24T22:09:47.144Z,58.50
2018-07-24T22:12:15.713Z,62.40
2018-07-24T22:14:44.259Z,63.80
2018-07-24T22:17:12.827Z,63.00
2018-07-24T22:19:41.345Z,63.00
2018-07-24T22:22:09.836Z,61.50
2018-07-24T22:24:38.351Z,60.60
2018-07-24T22:27:06.853Z,60.70
2018-07-24T22:29:35.424Z,60.10
2018-07-24T22:32:03.967Z,64.80
2018-07-24T22:34:32.524Z,65.40
2018-07-24T22:37:01.005Z,64.60
2018-07-24T22:39:29.544Z,64.30
2018-07-24T22:41:58.081Z,66.00
2018-07-24T22:44:26.652Z,65.80
2018-07-24T22:46:55.156Z,66.90
2018-07-24T22:49:23.708Z,66.70
2018-07-24T22:51:52.239Z,66.90
2018-07-24T22:54:20.776Z,67.30
2018-07-24T22:56:49.347Z,67.90
2018-07-24T22:59:17.876Z,68.10
2018-07-24T23:01:46.393Z,68.60
2018-07-24T23:04:14.954Z,68.50
2018-07-24T23:06:43.477Z,69.00
2018-07-24T23:09:11.999Z,66.90
2018-07-24T23:11:40.758Z,66.40
2018-07-24T23:14:09.301Z,67.10
2018-07-24T23:16:37.856Z,68.50
2018-07-24T23:19:06.442Z,69.20
2018-07-24T23:21:34.929Z,69.60
2018-07-24T23:24:03.487Z,70.40
2018-07-24T23:26:32.008Z,71.40
2018-07-24T23:29:00.568Z,72.20
2018-07-24T23:31:29.068Z,72.10
2018-07-24T23:33:58.483Z,71.70
2018-07-24T23:36:27.023Z,72.60
2018-07-24T23:38:55.555Z,72.90
2018-07-24T23:41:24.070Z,73.50
2018-07-24T23:43:52.596Z,73.00
2018-07-24T23:46:21.123Z,72.80
2018-07-24T23:48:49.708Z,72.80
2018-07-24T23:51:18.236Z,72.80
2018-07-24T23:53:46.737Z,72.40
2018-07-24T23:56:15.289Z,72.60
2018-07-24T23:58:43.813Z,72.60
